sensor_id;sensor_type;location;lat;lon;timestamp;pressure;altitude;pressure_sealevel;temperature;humidity
9439;BME280;5176;42.622;25.386;2022-11-20T00:01:32;96750.25;;;17.31;100.00
9439;BME280;5176;42.622;25.386;2022-11-20T00:03:59;96752.09;;;17.30;100.00
9439;BME280;5176;42.622;25.386;2022-11-20T00:06:28;96743.97;;;17.32;100.00
9439;BME280;5176;42.622;25.386;2022-11-20T00:08:57;96730.06;;;17.30;100.00
9439;BME280;5176;42.622;25.386;2022-11-20T00:11:27;96733.25;;;17.33;100.00
9439;BME280;5176;42.622;25.386;2022-11-20T00:13:57;96740.97;;;17.27;100.00
9439;BME280;5176;42.622;25.386;2022-11-20T00:16:27;96735.66;;;17.27;100.00
9439;BME280;5176;42.622;25.386;2022-11-20T00:18:55;96738.31;;;17.27;100.00
9439;BME280;5176;42.622;25.386;2022-11-20T00:21:24;96734.97;;;17.25;100.00
9439;BME280;5176;42.622;25.386;2022-11-20T00:23:54;96734.00;;;17.26;100.00
9439;BME280;5176;42.622;25.386;2022-11-20T00:26:22;96739.31;;;17.26;100.00
9439;BME280;5176;42.622;25.386;2022-11-20T00:28:52;96731.38;;;17.26;100.00
9439;BME280;5176;42.622;25.386;2022-11-20T00:31:19;96732.63;;;17.22;100.00
9439;BME280;5176;42.622;25.386;2022-11-20T00:33:49;96731.81;;;17.21;100.00
9439;BME280;5176;42.622;25.386;2022-11-20T00:36:18;96722.66;;;17.15;100.00
9439;BME280;5176;42.622;25.386;2022-11-20T00:38:50;96722.19;;;17.20;100.00
9439;BME280;5176;42.622;25.386;2022-11-20T00:41:18;96724.53;;;17.23;100.00
9439;BME280;5176;42.622;25.386;2022-11-20T00:43:45;96727.03;;;17.25;100.00
9439;BME280;5176;42.622;25.386;2022-11-20T00:46:14;96704.03;;;17.25;100.00
9439;BME280;5176;42.622;25.386;2022-11-20T00:48:42;96711.00;;;17.26;100.00
9439;BME280;5176;42.622;25.386;2022-11-20T00:51:11;96725.22;;;17.25;100.00
9439;BME280;5176;42.622;25.386;2022-11-20T00:53:39;96694.50;;;17.14;100.00
9439;BME280;5176;42.622;25.386;2022-11-20T00:56:10;96714.94;;;17.22;100.00
9439;BME280;5176;42.622;25.386;2022-11-20T00:58:39;96727.78;;;17.17;100.00
9439;BME280;5176;42.622;25.386;2022-11-20T01:01:08;96723.91;;;17.11;100.00
9439;BME280;5176;42.622;25.386;2022-11-20T01:03:37;96708.19;;;17.10;100.00
9439;BME280;5176;42.622;25.386;2022-11-20T01:06:09;96727.44;;;17.12;100.00
9439;BME280;5176;42.622;25.386;2022-11-20T01:08:38;96702.28;;;17.16;100.00
9439;BME280;5176;42.622;25.386;2022-11-20T01:11:07;96715.25;;;17.19;100.00
9439;BME280;5176;42.622;25.386;2022-11-20T01:13:35;96711.78;;;17.19;100.00
9439;BME280;5176;42.622;25.386;2022-11-20T01:16:07;96718.41;;;17.23;100.00
9439;BME280;5176;42.622;25.386;2022-11-20T01:18:35;96726.06;;;17.26;100.00
9439;BME280;5176;42.622;25.386;2022-11-20T01:21:04;96712.06;;;17.15;100.00
9439;BME280;5176;42.622;25.386;2022-11-20T01:23:32;96728.25;;;17.12;100.00
9439;BME280;5176;42.622;25.386;2022-11-20T01:26:02;96721.28;;;17.11;100.00
9439;BME280;5176;42.622;25.386;2022-11-20T01:28:29;96708.03;;;17.11;100.00
9439;BME280;5176;42.622;25.386;2022-11-20T01:30:57;96710.00;;;17.09;100.00
9439;BME280;5176;42.622;25.386;2022-11-20T01:33:25;96703.22;;;17.07;100.00
9439;BME280;5176;42.622;25.386;2022-11-20T01:35:52;96695.09;;;17.08;100.00
9439;BME280;5176;42.622;25.386;2022-11-20T01:38:19;96694.44;;;17.06;100.00
9439;BME280;5176;42.622;25.386;2022-11-20T01:40:54;96699.72;;;17.06;100.00
9439;BME280;5176;42.622;25.386;2022-11-20T01:43:24;96691.56;;;17.00;100.00
9439;BME280;5176;42.622;25.386;2022-11-20T01:46:08;96691.16;;;16.95;100.00
9439;BME280;5176;42.622;25.386;2022-11-20T01:48:44;96683.22;;;16.95;100.00
9439;BME280;5176;42.622;25.386;2022-11-20T01:51:18;96675.81;;;16.98;100.00
9439;BME280;5176;42.622;25.386;2022-11-20T01:53:48;96679.44;;;16.97;100.00
9439;BME280;5176;42.622;25.386;2022-11-20T01:56:17;96678.84;;;17.03;100.00
9439;BME280;5176;42.622;25.386;2022-11-20T01:58:48;96689.44;;;17.03;100.00
9439;BME280;5176;42.622;25.386;2022-11-20T02:01:18;96680.44;;;16.96;100.00
9439;BME280;5176;42.622;25.386;2022-11-20T02:03:46;96671.81;;;16.94;100.00
9439;BME280;5176;42.622;25.386;2022-11-20T02:06:17;96663.47;;;16.89;100.00
9439;BME280;5176;42.622;25.386;2022-11-20T02:08:46;96681.03;;;16.90;100.00
9439;BME280;5176;42.622;25.386;2022-11-20T02:11:13;96685.66;;;16.88;100.00
9439;BME280;5176;42.622;25.386;2022-11-20T02:13:40;96678.38;;;16.90;100.00
9439;BME280;5176;42.622;25.386;2022-11-20T02:16:14;96700.03;;;16.85;100.00
9439;BME280;5176;42.622;25.386;2022-11-20T02:18:42;96700.38;;;16.73;100.00
9439;BME280;5176;42.622;25.386;2022-11-20T02:21:17;96713.16;;;16.77;100.00
9439;BME280;5176;42.622;25.386;2022-11-20T02:24:15;96701.78;;;16.67;100.00
9439;BME280;5176;42.622;25.386;2022-11-20T02:26:46;96726.69;;;16.74;100.00
9439;BME280;5176;42.622;25.386;2022-11-20T02:29:19;96731.16;;;16.74;100.00
9439;BME280;5176;42.622;25.386;2022-11-20T02:31:47;96730.19;;;16.75;100.00
9439;BME280;5176;42.622;25.386;2022-11-20T02:34:14;96737.69;;;16.79;100.00
9439;BME280;5176;42.622;25.386;2022-11-20T02:36:42;96722.75;;;16.78;100.00
9439;BME280;5176;42.622;25.386;2022-11-20T02:39:11;96724.97;;;16.83;100.00
9439;BME280;5176;42.622;25.386;2022-11-20T02:41:43;96713.03;;;16.79;100.00
9439;BME280;5176;42.622;25.386;2022-11-20T02:44:10;96715.91;;;16.85;100.00
9439;BME280;5176;42.622;25.386;2022-11-20T02:46:37;96703.78;;;16.83;100.00
9439;BME280;5176;42.622;25.386;2022-11-20T02:49:05;96709.47;;;16.88;100.00
9439;BME280;5176;42.622;25.386;2022-11-20T02:51:32;96702.34;;;16.88;100.00
9439;BME280;5176;42.622;25.386;2022-11-20T02:53:59;96701.22;;;16.91;100.00
9439;BME280;5176;42.622;25.386;2022-11-20T02:56:27;96702.59;;;16.95;100.00
9439;BME280;5176;42.622;25.386;2022-11-20T02:58:55;96699.63;;;16.98;100.00
9439;BME280;5176;42.622;25.386;2022-11-20T03:01:22;96690.25;;;17.04;100.00
9439;BME280;5176;42.622;25.386;2022-11-20T03:03:50;96688.66;;;17.11;100.00
9439;BME280;5176;42.622;25.386;2022-11-20T03:06:19;96709.84;;;17.11;100.00
9439;BME280;5176;42.622;25.386;2022-11-20T03:08:46;96701.78;;;17.12;100.00
9439;BME280;5176;42.622;25.386;2022-11-20T03:11:13;96711.38;;;17.13;100.00
9439;BME280;5176;42.622;25.386;2022-11-20T03:13:41;96721.66;;;17.16;100.00
9439;BME280;5176;42.622;25.386;2022-11-20T03:16:11;96709.72;;;17.12;100.00
9439;BME280;5176;42.622;25.386;2022-11-20T03:18:39;96717.50;;;17.14;100.00
9439;BME280;5176;42.622;25.386;2022-11-20T03:21:07;96702.44;;;17.14;100.00
9439;BME280;5176;42.622;25.386;2022-11-20T03:23:35;96699.81;;;17.14;100.00
9439;BME280;5176;42.622;25.386;2022-11-20T03:26:10;96700.09;;;17.11;100.00
9439;BME280;5176;42.622;25.386;2022-11-20T03:28:38;96684.91;;;17.13;100.00
9439;BME280;5176;42.622;25.386;2022-11-20T03:31:07;96671.13;;;17.10;100.00
9439;BME280;5176;42.622;25.386;2022-11-20T03:33:36;96676.41;;;17.10;100.00
9439;BME280;5176;42.622;25.386;2022-11-20T03:36:05;96688.00;;;17.09;100.00
9439;BME280;5176;42.622;25.386;2022-11-20T03:38:33;96687.00;;;17.10;100.00
9439;BME280;5176;42.622;25.386;2022-11-20T03:41:01;96677.94;;;17.12;100.00
9439;BME280;5176;42.622;25.386;2022-11-20T03:43:29;96674.59;;;17.10;100.00
9439;BME280;5176;42.622;25.386;2022-11-20T03:45:57;96676.63;;;17.16;100.00
9439;BME280;5176;42.622;25.386;2022-11-20T03:48:24;96671.50;;;17.15;100.00
9439;BME280;5176;42.622;25.386;2022-11-20T03:50:54;96680.06;;;17.09;100.00
9439;BME280;5176;42.622;25.386;2022-11-20T03:53:33;96688.06;;;17.17;100.00
9439;BME280;5176;42.622;25.386;2022-11-20T03:56:01;96684.91;;;17.13;100.00
9439;BME280;5176;42.622;25.386;2022-11-20T03:58:28;96675.06;;;17.06;100.00
9439;BME280;5176;42.622;25.386;2022-11-20T04:00:55;96693.34;;;17.17;100.00
9439;BME280;5176;42.622;25.386;2022-11-20T04:03:22;96696.47;;;17.12;100.00
9439;BME280;5176;42.622;25.386;2022-11-20T04:05:49;96686.72;;;17.13;100.00
9439;BME280;5176;42.622;25.386;2022-11-20T04:08:18;96687.53;;;17.13;100.00
9439;BME280;5176;42.622;25.386;2022-11-20T04:10:46;96692.16;;;17.11;100.00
9439;BME280;5176;42.622;25.386;2022-11-20T04:13:13;96690.72;;;17.17;100.00
9439;BME280;5176;42.622;25.386;2022-11-20T04:15:40;96693.69;;;17.14;100.00
9439;BME280;5176;42.622;25.386;2022-11-20T04:18:07;96684.06;;;17.13;100.00
9439;BME280;5176;42.622;25.386;2022-11-20T04:20:35;96684.75;;;17.15;100.00
9439;BME280;5176;42.622;25.386;2022-11-20T04:23:02;96689.38;;;17.13;100.00
9439;BME280;5176;42.622;25.386;2022-11-20T04:25:31;96697.97;;;17.15;100.00
9439;BME280;5176;42.622;25.386;2022-11-20T04:27:58;96699.66;;;17.16;100.00
9439;BME280;5176;42.622;25.386;2022-11-20T04:30:25;96709.13;;;17.19;100.00
9439;BME280;5176;42.622;25.386;2022-11-20T04:32:52;96711.78;;;17.19;100.00
9439;BME280;5176;42.622;25.386;2022-11-20T04:35:19;96717.34;;;17.15;100.00
9439;BME280;5176;42.622;25.386;2022-11-20T04:37:46;96717.50;;;17.14;100.00
9439;BME280;5176;42.622;25.386;2022-11-20T04:40:14;96718.19;;;17.16;100.00
9439;BME280;5176;42.622;25.386;2022-11-20T04:42:42;96727.13;;;17.15;100.00
9439;BME280;5176;42.622;25.386;2022-11-20T04:45:10;96732.41;;;17.15;100.00
9439;BME280;5176;42.622;25.386;2022-11-20T04:47:37;96732.97;;;17.19;100.00
9439;BME280;5176;42.622;25.386;2022-11-20T04:50:05;96727.66;;;17.19;100.00
9439;BME280;5176;42.622;25.386;2022-11-20T04:52:32;96723.88;;;17.21;100.00
9439;BME280;5176;42.622;25.386;2022-11-20T04:54:59;96724.84;;;17.20;100.00
9439;BME280;5176;42.622;25.386;2022-11-20T04:57:26;96725.97;;;17.17;100.00
9439;BME280;5176;42.622;25.386;2022-11-20T04:59:55;96724.63;;;17.13;100.00
9439;BME280;5176;42.622;25.386;2022-11-20T05:02:23;96730.44;;;17.17;100.00
9439;BME280;5176;42.622;25.386;2022-11-20T05:04:50;96725.06;;;17.09;100.00
9439;BME280;5176;42.622;25.386;2022-11-20T05:07:17;96726.88;;;17.08;100.00
9439;BME280;5176;42.622;25.386;2022-11-20T05:09:44;96729.69;;;17.07;100.00
9439;BME280;5176;42.622;25.386;2022-11-20T05:12:11;96737.16;;;17.11;100.00
9439;BME280;5176;42.622;25.386;2022-11-20T05:14:39;96711.59;;;17.02;100.00
9439;BME280;5176;42.622;25.386;2022-11-20T05:17:10;96728.53;;;17.09;100.00
9439;BME280;5176;42.622;25.386;2022-11-20T05:19:37;96716.59;;;17.05;100.00
9439;BME280;5176;42.622;25.386;2022-11-20T05:22:04;96718.63;;;17.11;100.00
9439;BME280;5176;42.622;25.386;2022-11-20T05:24:32;96723.47;;;17.16;100.00
9439;BME280;5176;42.622;25.386;2022-11-20T05:26:59;96724.31;;;17.16;100.00
9439;BME280;5176;42.622;25.386;2022-11-20T05:29:26;96719.50;;;17.12;100.00
9439;BME280;5176;42.622;25.386;2022-11-20T05:31:53;96721.66;;;17.16;100.00
9439;BME280;5176;42.622;25.386;2022-11-20T05:34:22;96719.72;;;17.19;100.00
9439;BME280;5176;42.622;25.386;2022-11-20T05:36:49;96720.53;;;17.19;100.00
9439;BME280;5176;42.622;25.386;2022-11-20T05:39:16;96734.50;;;17.11;100.00
9439;BME280;5176;42.622;25.386;2022-11-20T05:41:44;96732.56;;;17.13;100.00
9439;BME280;5176;42.622;25.386;2022-11-20T05:44:11;96715.69;;;17.14;100.00
9439;BME280;5176;42.622;25.386;2022-11-20T05:46:38;96739.09;;;17.19;100.00
9439;BME280;5176;42.622;25.386;2022-11-20T05:49:06;96732.56;;;17.13;100.00
9439;BME280;5176;42.622;25.386;2022-11-20T05:51:34;96730.59;;;17.15;100.00
9439;BME280;5176;42.622;25.386;2022-11-20T05:54:02;96738.03;;;17.12;100.00
9439;BME280;5176;42.622;25.386;2022-11-20T05:56:29;96743.84;;;17.15;100.00
9439;BME280;5176;42.622;25.386;2022-11-20T05:58:56;96736.88;;;17.14;100.00
9439;BME280;5176;42.622;25.386;2022-11-20T06:01:25;96733.09;;;17.17;100.00
9439;BME280;5176;42.622;25.386;2022-11-20T06:03:53;96736.28;;;17.21;100.00
9439;BME280;5176;42.622;25.386;2022-11-20T06:06:20;96742.25;;;17.23;100.00
9439;BME280;5176;42.622;25.386;2022-11-20T06:08:49;96748.91;;;17.27;100.00
9439;BME280;5176;42.622;25.386;2022-11-20T06:11:17;96746.41;;;17.25;100.00
9439;BME280;5176;42.622;25.386;2022-11-20T06:13:45;96761.69;;;17.31;100.00
9439;BME280;5176;42.622;25.386;2022-11-20T06:16:14;96760.72;;;17.32;100.00
9439;BME280;5176;42.622;25.386;2022-11-20T06:18:41;96744.44;;;17.27;100.00
9439;BME280;5176;42.622;25.386;2022-11-20T06:21:11;96763.44;;;17.40;100.00
9439;BME280;5176;42.622;25.386;2022-11-20T06:23:39;96760.47;;;17.43;100.00
9439;BME280;5176;42.622;25.386;2022-11-20T06:26:10;96754.91;;;17.47;100.00
9439;BME280;5176;42.622;25.386;2022-11-20T06:28:37;96750.09;;;17.50;100.00
9439;BME280;5176;42.622;25.386;2022-11-20T06:31:05;96751.53;;;17.44;100.00
9439;BME280;5176;42.622;25.386;2022-11-20T06:33:33;96759.22;;;17.48;100.00
9439;BME280;5176;42.622;25.386;2022-11-20T06:36:02;96738.78;;;17.40;100.00
9439;BME280;5176;42.622;25.386;2022-11-20T06:38:30;96753.06;;;17.47;100.00
9439;BME280;5176;42.622;25.386;2022-11-20T06:40:58;96764.06;;;17.52;100.00
9439;BME280;5176;42.622;25.386;2022-11-20T06:43:28;96764.56;;;17.56;100.00
9439;BME280;5176;42.622;25.386;2022-11-20T06:45:57;96770.09;;;17.62;100.00
9439;BME280;5176;42.622;25.386;2022-11-20T06:48:25;96767.44;;;17.62;100.00
9439;BME280;5176;42.622;25.386;2022-11-20T06:50:53;96773.41;;;17.64;100.00
9439;BME280;5176;42.622;25.386;2022-11-20T06:53:21;96778.72;;;17.64;100.00
9439;BME280;5176;42.622;25.386;2022-11-20T06:55:48;96781.22;;;17.66;100.00
9439;BME280;5176;42.622;25.386;2022-11-20T06:58:17;96787.66;;;17.63;100.00
9439;BME280;5176;42.622;25.386;2022-11-20T07:00:45;96788.25;;;17.57;100.00
9439;BME280;5176;42.622;25.386;2022-11-20T07:03:13;96788.25;;;17.57;100.00
9439;BME280;5176;42.622;25.386;2022-11-20T07:05:40;96785.75;;;17.56;100.00
9439;BME280;5176;42.622;25.386;2022-11-20T07:08:09;96776.16;;;17.55;100.00
9439;BME280;5176;42.622;25.386;2022-11-20T07:10:36;96791.44;;;17.61;100.00
9439;BME280;5176;42.622;25.386;2022-11-20T07:13:03;96784.72;;;17.66;100.00
9439;BME280;5176;42.622;25.386;2022-11-20T07:15:32;96793.19;;;17.70;100.00
9439;BME280;5176;42.622;25.386;2022-11-20T07:18:01;96797.81;;;17.68;100.00
9439;BME280;5176;42.622;25.386;2022-11-20T07:20:28;96783.56;;;17.69;100.00
9439;BME280;5176;42.622;25.386;2022-11-20T07:22:56;96782.56;;;17.70;100.00
9439;BME280;5176;42.622;25.386;2022-11-20T07:25:25;96794.09;;;17.79;100.00
9439;BME280;5176;42.622;25.386;2022-11-20T07:27:52;96784.69;;;17.84;100.00
9439;BME280;5176;42.622;25.386;2022-11-20T07:30:20;96787.56;;;17.91;100.00
9439;BME280;5176;42.622;25.386;2022-11-20T07:32:50;96781.16;;;17.93;100.00
9439;BME280;5176;42.622;25.386;2022-11-20T07:35:19;96775.44;;;18.06;100.00
9439;BME280;5176;42.622;25.386;2022-11-20T07:37:46;96767.72;;;18.21;100.00
9439;BME280;5176;42.622;25.386;2022-11-20T07:40:14;96766.81;;;18.38;100.00
9439;BME280;5176;42.622;25.386;2022-11-20T07:42:47;96764.69;;;18.68;100.00
9439;BME280;5176;42.622;25.386;2022-11-20T07:45:15;96767.56;;;18.83;99.69
9439;BME280;5176;42.622;25.386;2022-11-20T07:47:42;96753.91;;;18.77;97.51
9439;BME280;5176;42.622;25.386;2022-11-20T07:50:10;96770.41;;;18.89;96.87
9439;BME280;5176;42.622;25.386;2022-11-20T07:52:39;96772.53;;;18.86;97.27
9439;BME280;5176;42.622;25.386;2022-11-20T07:55:07;96768.72;;;18.80;97.19
9439;BME280;5176;42.622;25.386;2022-11-20T07:57:35;96779.34;;;18.80;97.25
9439;BME280;5176;42.622;25.386;2022-11-20T08:00:02;96785.28;;;18.74;97.04
9439;BME280;5176;42.622;25.386;2022-11-20T08:02:30;96785.13;;;18.75;97.62
9439;BME280;5176;42.622;25.386;2022-11-20T08:04:57;96780.63;;;18.68;98.12
9439;BME280;5176;42.622;25.386;2022-11-20T08:07:24;96788.56;;;18.68;98.66
9439;BME280;5176;42.622;25.386;2022-11-20T08:09:53;96794.31;;;18.63;98.93
9439;BME280;5176;42.622;25.386;2022-11-20T08:12:22;96792.81;;;18.61;99.44
9439;BME280;5176;42.622;25.386;2022-11-20T08:15:07;96797.81;;;18.64;99.57
9439;BME280;5176;42.622;25.386;2022-11-20T08:17:35;96790.66;;;18.64;98.99
9439;BME280;5176;42.622;25.386;2022-11-20T08:20:02;96791.84;;;18.62;99.17
9439;BME280;5176;42.622;25.386;2022-11-20T08:22:30;96791.66;;;18.63;99.25
9439;BME280;5176;42.622;25.386;2022-11-20T08:24:59;96784.88;;;18.61;99.63
9439;BME280;5176;42.622;25.386;2022-11-20T08:27:27;96776.22;;;18.59;99.67
9439;BME280;5176;42.622;25.386;2022-11-20T08:29:54;96777.19;;;18.58;99.63
9439;BME280;5176;42.622;25.386;2022-11-20T08:32:22;96780.69;;;18.58;99.32
9439;BME280;5176;42.622;25.386;2022-11-20T08:34:49;96775.88;;;18.54;100.00
9439;BME280;5176;42.622;25.386;2022-11-20T08:37:17;96782.19;;;18.52;99.64
9439;BME280;5176;42.622;25.386;2022-11-20T08:39:44;96779.53;;;18.52;100.00
9439;BME280;5176;42.622;25.386;2022-11-20T08:42:14;96759.75;;;18.47;99.94
9439;BME280;5176;42.622;25.386;2022-11-20T08:44:41;96766.59;;;18.58;99.41
9439;BME280;5176;42.622;25.386;2022-11-20T08:47:08;96771.91;;;18.58;98.92
9439;BME280;5176;42.622;25.386;2022-11-20T08:49:35;96760.16;;;18.60;99.06
9439;BME280;5176;42.622;25.386;2022-11-20T08:52:03;96766.59;;;18.58;99.49
9439;BME280;5176;42.622;25.386;2022-11-20T08:54:31;96767.91;;;18.54;99.86
9439;BME280;5176;42.622;25.386;2022-11-20T08:56:58;96773.41;;;18.60;98.84
9439;BME280;5176;42.622;25.386;2022-11-20T08:59:27;96745.03;;;18.52;99.72
9439;BME280;5176;42.622;25.386;2022-11-20T09:01:54;96752.31;;;18.59;100.00
9439;BME280;5176;42.622;25.386;2022-11-20T09:04:22;96739.91;;;18.59;99.79
9439;BME280;5176;42.622;25.386;2022-11-20T09:06:49;96748.94;;;18.66;99.86
9439;BME280;5176;42.622;25.386;2022-11-20T09:09:17;96741.63;;;18.68;99.11
9439;BME280;5176;42.622;25.386;2022-11-20T09:11:45;96737.13;;;18.69;99.17
9439;BME280;5176;42.622;25.386;2022-11-20T09:14:12;96739.16;;;18.75;98.81
9439;BME280;5176;42.622;25.386;2022-11-20T09:16:41;96735.34;;;18.77;98.60
9439;BME280;5176;42.622;25.386;2022-11-20T09:19:08;96728.06;;;18.80;98.12
9439;BME280;5176;42.622;25.386;2022-11-20T09:21:36;96729.06;;;18.87;96.65
9439;BME280;5176;42.622;25.386;2022-11-20T09:24:05;96731.09;;;18.93;95.85
9439;BME280;5176;42.622;25.386;2022-11-20T09:26:32;96721.47;;;19.00;95.32
9439;BME280;5176;42.622;25.386;2022-11-20T09:28:59;96722.31;;;19.00;94.87
9439;BME280;5176;42.622;25.386;2022-11-20T09:31:27;96725.97;;;19.08;95.39
9439;BME280;5176;42.622;25.386;2022-11-20T09:33:55;96724.16;;;19.08;94.23
9439;BME280;5176;42.622;25.386;2022-11-20T09:36:23;96704.38;;;19.11;93.62
9439;BME280;5176;42.622;25.386;2022-11-20T09:38:50;96696.06;;;19.05;93.95
9439;BME280;5176;42.622;25.386;2022-11-20T09:41:38;96693.75;;;19.11;93.28
9439;BME280;5176;42.622;25.386;2022-11-20T09:44:23;96713.34;;;19.18;93.17
9439;BME280;5176;42.622;25.386;2022-11-20T09:47:01;96705.25;;;19.19;92.70
9439;BME280;5176;42.622;25.386;2022-11-20T09:49:40;96704.56;;;19.25;92.80
9439;BME280;5176;42.622;25.386;2022-11-20T09:52:31;96698.28;;;19.26;91.68
9439;BME280;5176;42.622;25.386;2022-11-20T09:55:01;96683.81;;;19.21;90.47
9439;BME280;5176;42.622;25.386;2022-11-20T09:57:34;96689.97;;;19.29;90.24
9439;BME280;5176;42.622;25.386;2022-11-20T10:00:04;96687.63;;;19.26;90.02
9439;BME280;5176;42.622;25.386;2022-11-20T10:02:39;96686.66;;;19.19;90.40
9439;BME280;5176;42.622;25.386;2022-11-20T10:05:15;96680.16;;;19.22;90.14
9439;BME280;5176;42.622;25.386;2022-11-20T10:07:48;96676.19;;;19.26;91.05
9439;BME280;5176;42.622;25.386;2022-11-20T10:10:29;96677.16;;;19.25;89.64
9439;BME280;5176;42.622;25.386;2022-11-20T10:13:12;96670.00;;;19.25;90.15
9439;BME280;5176;42.622;25.386;2022-11-20T10:15:51;96665.22;;;19.29;89.41
9439;BME280;5176;42.622;25.386;2022-11-20T10:18:36;96671.69;;;19.35;88.14
9439;BME280;5176;42.622;25.386;2022-11-20T10:21:12;96666.56;;;19.33;87.86
9439;BME280;5176;42.622;25.386;2022-11-20T10:24:01;96668.34;;;19.32;87.10
9439;BME280;5176;42.622;25.386;2022-11-20T10:26:37;96672.53;;;19.35;86.96
9439;BME280;5176;42.622;25.386;2022-11-20T10:29:11;96675.66;;;19.39;87.40
9439;BME280;5176;42.622;25.386;2022-11-20T10:31:40;96678.50;;;19.37;87.85
9439;BME280;5176;42.622;25.386;2022-11-20T10:34:16;96659.91;;;19.29;86.54
9439;BME280;5176;42.622;25.386;2022-11-20T10:36:52;96671.88;;;19.41;84.88
9439;BME280;5176;42.622;25.386;2022-11-20T10:39:26;96667.38;;;19.42;83.37
9439;BME280;5176;42.622;25.386;2022-11-20T10:41:56;96670.69;;;19.44;84.31
9439;BME280;5176;42.622;25.386;2022-11-20T10:44:28;96670.69;;;19.44;83.81
9439;BME280;5176;42.622;25.386;2022-11-20T10:47:14;96666.88;;;19.46;82.92
9439;BME280;5176;42.622;25.386;2022-11-20T10:49:43;96682.31;;;19.51;81.96
9439;BME280;5176;42.622;25.386;2022-11-20T10:52:21;96677.34;;;19.48;81.28
9439;BME280;5176;42.622;25.386;2022-11-20T10:54:57;96669.03;;;19.51;81.79
9439;BME280;5176;42.622;25.386;2022-11-20T10:57:41;96664.72;;;19.58;81.13
9439;BME280;5176;42.622;25.386;2022-11-20T11:00:14;96662.22;;;19.56;80.97
9439;BME280;5176;42.622;25.386;2022-11-20T11:02:45;96659.25;;;19.59;81.97
9439;BME280;5176;42.622;25.386;2022-11-20T11:05:24;96652.28;;;19.67;81.20
9439;BME280;5176;42.622;25.386;2022-11-20T11:07:56;96640.63;;;19.68;82.06
9439;BME280;5176;42.622;25.386;2022-11-20T11:10:28;96635.44;;;19.82;81.69
9439;BME280;5176;42.622;25.386;2022-11-20T11:12:57;96631.59;;;19.85;81.78
9439;BME280;5176;42.622;25.386;2022-11-20T11:15:26;96621.63;;;19.95;81.16
9439;BME280;5176;42.622;25.386;2022-11-20T11:17:54;96623.44;;;19.95;80.65
9439;BME280;5176;42.622;25.386;2022-11-20T11:20:23;96607.44;;;20.03;80.93
9439;BME280;5176;42.622;25.386;2022-11-20T11:22:52;96614.38;;;20.12;81.36
9439;BME280;5176;42.622;25.386;2022-11-20T11:25:28;96614.75;;;20.09;80.47
9439;BME280;5176;42.622;25.386;2022-11-20T11:27:57;96601.09;;;20.12;80.99
9439;BME280;5176;42.622;25.386;2022-11-20T11:30:26;96608.56;;;20.17;79.78
9439;BME280;5176;42.622;25.386;2022-11-20T11:33:04;96605.91;;;20.17;79.68
9439;BME280;5176;42.622;25.386;2022-11-20T11:35:32;96610.22;;;20.18;79.29
9439;BME280;5176;42.622;25.386;2022-11-20T11:38:04;96603.88;;;20.19;79.43
9439;BME280;5176;42.622;25.386;2022-11-20T11:40:36;96613.69;;;20.26;79.09
9439;BME280;5176;42.622;25.386;2022-11-20T11:43:06;96604.16;;;20.32;79.86
9439;BME280;5176;42.622;25.386;2022-11-20T11:45:54;96603.19;;;20.33;79.02
9439;BME280;5176;42.622;25.386;2022-11-20T11:48:21;96590.16;;;20.38;78.67
9439;BME280;5176;42.622;25.386;2022-11-20T11:50:49;96598.75;;;20.56;78.74
9439;BME280;5176;42.622;25.386;2022-11-20T11:53:19;96593.47;;;20.71;77.47
9439;BME280;5176;42.622;25.386;2022-11-20T11:55:51;96584.84;;;20.92;76.37
9439;BME280;5176;42.622;25.386;2022-11-20T11:58:38;96585.38;;;21.10;75.28
9439;BME280;5176;42.622;25.386;2022-11-20T12:01:26;96583.34;;;21.12;72.82
9439;BME280;5176;42.622;25.386;2022-11-20T12:04:02;96587.91;;;21.27;73.79
9439;BME280;5176;42.622;25.386;2022-11-20T12:06:32;96594.84;;;21.36;71.82
9439;BME280;5176;42.622;25.386;2022-11-20T12:09:03;96581.91;;;21.47;69.05
9439;BME280;5176;42.622;25.386;2022-11-20T12:11:37;96588.31;;;21.53;68.24
9439;BME280;5176;42.622;25.386;2022-11-20T12:14:12;96588.81;;;21.57;66.49
9439;BME280;5176;42.622;25.386;2022-11-20T12:16:41;96591.66;;;21.55;66.04
9439;BME280;5176;42.622;25.386;2022-11-20T12:19:10;96579.25;;;21.47;65.56
9439;BME280;5176;42.622;25.386;2022-11-20T12:21:46;96577.47;;;21.40;65.41
9439;BME280;5176;42.622;25.386;2022-11-20T12:24:42;96572.69;;;21.35;66.45
9439;BME280;5176;42.622;25.386;2022-11-20T12:27:36;96586.38;;;21.32;67.53
9439;BME280;5176;42.622;25.386;2022-11-20T12:30:09;96589.56;;;21.28;68.52
9439;BME280;5176;42.622;25.386;2022-11-20T12:33:01;96592.28;;;21.19;69.14
9439;BME280;5176;42.622;25.386;2022-11-20T12:35:42;96587.97;;;21.18;69.51
9439;BME280;5176;42.622;25.386;2022-11-20T12:38:38;96579.81;;;21.20;68.56
9439;BME280;5176;42.622;25.386;2022-11-20T12:41:14;96564.69;;;21.12;68.00
9439;BME280;5176;42.622;25.386;2022-11-20T12:44:16;96578.09;;;21.04;69.96
9439;BME280;5176;42.622;25.386;2022-11-20T12:47:14;96573.66;;;20.97;69.16
9439;BME280;5176;42.622;25.386;2022-11-20T12:49:54;96568.50;;;20.95;69.44
9439;BME280;5176;42.622;25.386;2022-11-20T12:52:30;96563.13;;;20.80;69.92
9439;BME280;5176;42.622;25.386;2022-11-20T12:55:10;96559.91;;;20.85;70.73
9439;BME280;5176;42.622;25.386;2022-11-20T12:57:44;96562.78;;;20.83;70.60
9439;BME280;5176;42.622;25.386;2022-11-20T13:00:20;96564.09;;;20.87;70.88
9439;BME280;5176;42.622;25.386;2022-11-20T13:03:20;96566.38;;;20.90;71.17
9439;BME280;5176;42.622;25.386;2022-11-20T13:06:00;96562.69;;;20.91;70.82
9439;BME280;5176;42.622;25.386;2022-11-20T13:08:34;96571.38;;;20.93;69.92
9439;BME280;5176;42.622;25.386;2022-11-20T13:11:07;96560.72;;;20.93;70.65
9439;BME280;5176;42.622;25.386;2022-11-20T13:13:45;96563.19;;;20.95;71.57
9439;BME280;5176;42.622;25.386;2022-11-20T13:16:22;96566.75;;;20.87;71.45
9439;BME280;5176;42.622;25.386;2022-11-20T13:18:50;96561.75;;;20.84;70.58
9439;BME280;5176;42.622;25.386;2022-11-20T13:21:19;96561.81;;;20.76;70.36
9439;BME280;5176;42.622;25.386;2022-11-20T13:23:47;96558.22;;;20.69;70.56